Saline City, Missouri
Current Conditions -  °F | °C
As of 8:55 AM on Friday 19 Dec 2014 (Local Time) from KVER Reporting Station
Haze Haze  
Wind Chill: -2°   Ceiling: 600
Heat Index:   Visibility: 3mi
Dew Point:   Wind: 5mph
Humidity: 96%   Direction: 90°E
Pressure: 30.29"   Gusts: NA
Location:  39.2023°N, 93.0277°W
Report Text: KVER 191455Z AUTO 09004KT 3SM BR BKN006 OVC022 01/00 A3029 RMK AO2 T00080003
Loading
Personal Weather Stations






























Interactive Weather Map New forecast layout! Learn more

10-Day Weather Forecast

Advertisements
Track Severe Weather on mobile